createdAt,value
2023-02-28T00:00:02.904Z,1027.26
2023-02-28T00:01:03.673Z,1027.30
2023-02-28T00:02:02.980Z,1027.29
2023-02-28T00:03:02.908Z,1027.28
2023-02-28T00:04:02.893Z,1027.24
2023-02-28T00:05:02.856Z,1027.29
2023-02-28T00:06:02.860Z,1027.30
2023-02-28T00:07:02.877Z,1027.28
2023-02-28T00:08:02.813Z,1027.29
2023-02-28T00:09:02.802Z,1027.29
2023-02-28T00:10:02.820Z,1027.23
2023-02-28T00:11:02.774Z,1027.26
2023-02-28T00:12:02.773Z,1027.33
2023-02-28T00:13:02.746Z,1027.26
2023-02-28T00:14:02.745Z,1027.28
2023-02-28T00:15:02.775Z,1027.39
2023-02-28T00:16:02.721Z,1027.25
2023-02-28T00:17:02.692Z,1027.33
2023-02-28T00:18:02.745Z,1027.31
2023-02-28T00:19:02.694Z,1027.34
2023-02-28T00:20:02.680Z,1027.36
2023-02-28T00:21:02.666Z,1027.32
2023-02-28T00:22:02.659Z,1027.38
2023-02-28T00:23:02.692Z,1027.35
2023-02-28T00:24:02.595Z,1027.37
2023-02-28T00:25:02.598Z,1027.33
2023-02-28T00:26:02.610Z,1027.33
2023-02-28T00:27:02.574Z,1027.31
2023-02-28T00:28:02.635Z,1027.33
2023-02-28T00:29:02.610Z,1027.31
2023-02-28T00:30:02.536Z,1027.25
2023-02-28T00:31:02.544Z,1027.32
2023-02-28T00:32:02.557Z,1027.25
2023-02-28T00:33:02.556Z,1027.34
2023-02-28T00:34:02.510Z,1027.36
2023-02-28T00:35:02.477Z,1027.31
2023-02-28T00:36:02.530Z,1027.34
2023-02-28T00:37:02.482Z,1027.31
2023-02-28T00:38:03.152Z,1027.35
2023-02-28T00:39:02.464Z,1027.37
2023-02-28T00:40:02.401Z,1027.34
2023-02-28T00:41:02.435Z,1027.37
2023-02-28T00:42:02.416Z,1027.30
2023-02-28T00:43:02.441Z,1027.37
2023-02-28T00:44:02.349Z,1027.32
2023-02-28T00:45:02.481Z,1027.36
2023-02-28T00:46:02.512Z,1027.35
2023-02-28T00:47:02.325Z,1027.34
2023-02-28T00:48:02.309Z,1027.37
2023-02-28T00:49:02.291Z,1027.31
2023-02-28T00:50:02.336Z,1027.33
2023-02-28T00:51:02.286Z,1027.32
2023-02-28T00:52:02.272Z,1027.36
2023-02-28T00:53:02.280Z,1027.36
2023-02-28T00:54:02.234Z,1027.34
2023-02-28T00:55:02.246Z,1027.38
2023-02-28T00:56:02.268Z,1027.37
2023-02-28T00:57:02.206Z,1027.35
2023-02-28T00:58:02.160Z,1027.36
2023-02-28T00:59:02.204Z,1027.34
2023-02-28T01:00:02.151Z,1027.34
2023-02-28T01:01:02.140Z,1027.35
2023-02-28T01:02:02.147Z,1027.29
2023-02-28T01:03:02.133Z,1027.33
2023-02-28T01:04:02.144Z,1027.32
2023-02-28T01:05:02.117Z,1027.32
2023-02-28T01:06:02.086Z,1027.33
2023-02-28T01:07:02.091Z,1027.32
2023-02-28T01:08:02.061Z,1027.33
2023-02-28T01:09:02.115Z,1027.29
2023-02-28T01:10:02.056Z,1027.31
2023-02-28T01:11:02.042Z,1027.32
2023-02-28T01:12:01.984Z,1027.28
2023-02-28T01:13:02.004Z,1027.33
2023-02-28T01:14:02.010Z,1027.36
2023-02-28T01:15:01.999Z,1027.32
2023-02-28T01:16:02.026Z,1027.27
2023-02-28T01:17:01.935Z,1027.26
2023-02-28T01:18:01.942Z,1027.24
2023-02-28T01:19:01.908Z,1027.33
2023-02-28T01:20:01.960Z,1027.28
2023-02-28T01:21:02.624Z,1027.37
2023-02-28T01:22:01.861Z,1027.30
2023-02-28T01:23:01.896Z,1027.38
2023-02-28T01:24:01.875Z,1027.39
2023-02-28T01:25:01.864Z,1027.40
2023-02-28T01:26:01.812Z,1027.37
2023-02-28T01:27:01.837Z,1027.35
2023-02-28T01:28:01.793Z,1027.38
2023-02-28T01:29:01.798Z,1027.32
2023-02-28T01:30:01.781Z,1027.30
2023-02-28T01:31:01.776Z,1027.31
2023-02-28T01:32:01.755Z,1027.30
2023-02-28T01:33:01.738Z,1027.35
2023-02-28T01:34:01.723Z,1027.37
2023-02-28T01:35:01.729Z,1027.27
2023-02-28T01:36:01.710Z,1027.32
2023-02-28T01:37:01.689Z,1027.32
2023-02-28T01:38:15.741Z,1027.34
2023-02-28T01:39:02.656Z,1027.32
2023-02-28T01:40:01.696Z,1027.34
2023-02-28T01:41:01.668Z,1027.38
2023-02-28T01:42:01.647Z,1027.34
2023-02-28T01:43:01.635Z,1027.30
2023-02-28T01:44:01.617Z,1027.31
2023-02-28T01:45:01.601Z,1027.28
2023-02-28T01:46:01.604Z,1027.31
2023-02-28T01:47:01.550Z,1027.28
2023-02-28T01:48:01.537Z,1027.33
2023-02-28T01:49:01.581Z,1027.26
2023-02-28T01:50:01.516Z,1027.32
2023-02-28T01:51:01.513Z,1027.33
2023-02-28T01:52:01.508Z,1027.27
2023-02-28T01:53:01.497Z,1027.21
2023-02-28T01:54:01.510Z,1027.34
2023-02-28T01:55:01.458Z,1027.33
2023-02-28T01:56:01.469Z,1027.36
2023-02-28T01:57:01.447Z,1027.29
2023-02-28T01:58:01.410Z,1027.31
2023-02-28T01:59:01.417Z,1027.17
2023-02-28T02:00:01.413Z,1027.20
2023-02-28T02:01:01.362Z,1027.20
2023-02-28T02:02:01.462Z,1027.20
2023-02-28T02:03:01.405Z,1027.15
2023-02-28T02:04:01.334Z,1027.24
2023-02-28T02:05:01.351Z,1027.17
2023-02-28T02:06:01.384Z,1027.23
2023-02-28T02:07:01.290Z,1027.15
2023-02-28T02:08:01.278Z,1027.19
2023-02-28T02:09:01.257Z,1027.20
2023-02-28T02:10:01.343Z,1027.28
2023-02-28T02:11:01.226Z,1027.12
2023-02-28T02:12:01.258Z,1027.12
2023-02-28T02:13:01.203Z,1027.11
2023-02-28T02:14:01.204Z,1027.07
2023-02-28T02:15:01.197Z,1027.03
2023-02-28T02:16:01.314Z,1027.04
2023-02-28T02:17:01.193Z,1027.05
2023-02-28T02:18:01.180Z,1027.03
2023-02-28T02:19:01.163Z,1027.02
2023-02-28T02:20:01.195Z,1027.07
2023-02-28T02:21:01.122Z,1026.99
2023-02-28T02:22:01.162Z,1026.99
2023-02-28T02:23:01.192Z,1026.99
2023-02-28T02:24:01.079Z,1026.98
2023-02-28T02:25:01.063Z,1026.94
2023-02-28T02:26:01.060Z,1026.96
2023-02-28T02:27:01.047Z,1027.00
2023-02-28T02:28:01.028Z,1026.94
2023-02-28T02:29:01.017Z,1026.91
2023-02-28T02:30:01.050Z,1026.93
2023-02-28T02:31:01.050Z,1026.95
2023-02-28T02:32:01.052Z,1026.96
2023-02-28T02:33:00.953Z,1026.89
2023-02-28T02:34:01.048Z,1026.94
2023-02-28T02:35:00.955Z,1026.89
2023-02-28T02:36:01.018Z,1026.91
2023-02-28T02:37:00.953Z,1026.94
2023-02-28T02:38:00.929Z,1026.97
2023-02-28T02:39:00.919Z,1026.90
2023-02-28T02:40:00.926Z,1026.92
2023-02-28T02:41:00.932Z,1026.96
2023-02-28T02:42:00.905Z,1026.90
2023-02-28T02:43:00.875Z,1026.92
2023-02-28T02:44:00.878Z,1026.91
2023-02-28T02:45:00.798Z,1026.92
2023-02-28T02:46:00.842Z,1026.90
2023-02-28T02:47:00.782Z,1026.95
2023-02-28T02:48:00.795Z,1026.96
2023-02-28T02:49:00.783Z,1026.95
2023-02-28T02:50:00.841Z,1026.91
2023-02-28T02:51:00.728Z,1026.85
2023-02-28T02:52:00.784Z,1026.88
2023-02-28T02:53:00.709Z,1026.82
2023-02-28T02:54:00.700Z,1026.84
2023-02-28T02:55:00.675Z,1026.83
2023-02-28T02:56:00.698Z,1026.94
2023-02-28T02:57:00.678Z,1026.90
2023-02-28T02:58:00.720Z,1026.92
2023-02-28T02:59:00.623Z,1026.88
2023-02-28T03:00:00.653Z,1026.94
2023-02-28T03:01:00.669Z,1026.88
2023-02-28T03:02:00.678Z,1026.89
2023-02-28T03:03:00.597Z,1026.91
2023-02-28T03:04:00.678Z,1027.00
2023-02-28T03:05:00.563Z,1026.95
2023-02-28T03:06:00.600Z,1026.93
2023-02-28T03:07:00.527Z,1026.94
2023-02-28T03:08:00.525Z,1026.90
2023-02-28T03:09:00.517Z,1027.02
2023-02-28T03:10:00.584Z,1026.98
2023-02-28T03:11:00.468Z,1026.95
2023-02-28T03:12:00.497Z,1027.02
2023-02-28T03:13:00.449Z,1026.99
2023-02-28T03:14:00.487Z,1026.99
2023-02-28T03:15:00.521Z,1026.95
2023-02-28T03:16:00.500Z,1026.95
2023-02-28T03:17:00.441Z,1027.00
2023-02-28T03:18:00.389Z,1026.97
2023-02-28T03:19:00.405Z,1027.00
2023-02-28T03:20:00.395Z,1027.01
2023-02-28T03:21:00.359Z,1026.92
2023-02-28T03:22:00.353Z,1026.97
2023-02-28T03:23:00.328Z,1026.94
2023-02-28T03:24:00.350Z,1026.95
2023-02-28T03:25:00.315Z,1026.91
2023-02-28T03:26:00.300Z,1026.91
2023-02-28T03:27:00.275Z,1026.91
2023-02-28T03:28:00.297Z,1026.94
2023-02-28T03:29:00.298Z,1026.90
2023-02-28T03:30:00.327Z,1026.93
2023-02-28T03:31:00.248Z,1026.89
2023-02-28T03:32:00.346Z,1026.93
2023-02-28T03:33:00.220Z,1026.90
2023-02-28T03:34:00.233Z,1026.94
2023-02-28T03:35:00.179Z,1026.94
2023-02-28T03:36:00.362Z,1026.96
2023-02-28T03:37:00.240Z,1026.91
2023-02-28T03:38:00.175Z,1026.86
2023-02-28T03:39:00.169Z,1026.85
2023-02-28T03:40:00.165Z,1026.93
2023-02-28T03:41:00.107Z,1026.95
2023-02-28T03:42:00.108Z,1026.94
2023-02-28T03:43:00.093Z,1026.94
2023-02-28T03:44:00.135Z,1026.90
2023-02-28T03:45:00.084Z,1026.91
2023-02-28T03:46:00.087Z,1026.95
2023-02-28T03:47:00.062Z,1026.98
2023-02-28T03:48:00.106Z,1026.92
2023-02-28T03:49:00.005Z,1026.91
2023-02-28T03:50:00.097Z,1026.87
2023-02-28T03:50:59.965Z,1026.94
2023-02-28T03:52:00.060Z,1026.89
2023-02-28T03:52:59.955Z,1026.83
2023-02-28T03:53:59.981Z,1026.90
2023-02-28T03:54:59.935Z,1026.91
2023-02-28T03:55:59.927Z,1026.90
2023-02-28T03:56:59.961Z,1026.94
2023-02-28T03:57:59.925Z,1026.87
2023-02-28T03:58:59.899Z,1026.91
2023-02-28T03:59:59.873Z,1026.95
2023-02-28T04:00:59.879Z,1026.95
2023-02-28T04:01:59.913Z,1026.92
2023-02-28T04:02:59.825Z,1026.98
2023-02-28T04:03:59.841Z,1026.97
2023-02-28T04:04:59.831Z,1027.02
2023-02-28T04:05:59.807Z,1026.95
2023-02-28T04:06:59.858Z,1027.03
2023-02-28T04:07:59.789Z,1027.00
2023-02-28T04:08:59.739Z,1026.97
2023-02-28T04:09:59.776Z,1026.98
2023-02-28T04:10:59.720Z,1027.08
2023-02-28T04:11:59.758Z,1026.99
2023-02-28T04:12:59.745Z,1026.98
2023-02-28T04:13:59.719Z,1026.96
2023-02-28T04:14:59.668Z,1027.00
2023-02-28T04:15:59.682Z,1027.03
2023-02-28T04:16:59.638Z,1027.00
2023-02-28T04:17:59.722Z,1026.98
2023-02-28T04:18:59.609Z,1026.97
2023-02-28T04:19:59.616Z,1026.99
2023-02-28T04:20:59.587Z,1027.01
2023-02-28T04:21:59.637Z,1027.06
2023-02-28T04:22:59.617Z,1027.03
2023-02-28T04:23:59.567Z,1027.00
2023-02-28T04:24:59.531Z,1027.06
2023-02-28T04:25:59.559Z,1027.06
2023-02-28T04:26:59.534Z,1027.04
2023-02-28T04:27:59.606Z,1027.08
2023-02-28T04:28:59.515Z,1027.07
2023-02-28T04:29:59.534Z,1027.05
2023-02-28T04:30:59.462Z,1027.01
2023-02-28T04:31:59.582Z,1027.09
2023-02-28T04:32:59.783Z,1027.06
2023-02-28T04:33:59.486Z,1027.01
2023-02-28T04:34:59.405Z,1027.10
2023-02-28T04:35:59.442Z,1027.12
2023-02-28T04:37:12.401Z,1027.09
2023-02-28T04:38:00.477Z,1027.09
2023-02-28T04:38:59.354Z,1027.08
2023-02-28T04:39:59.351Z,1027.02
2023-02-28T04:40:59.333Z,1027.10
2023-02-28T04:41:59.340Z,1027.16
2023-02-28T04:42:59.351Z,1027.08
2023-02-28T04:43:59.344Z,1027.15
2023-02-28T04:44:59.284Z,1027.11
2023-02-28T04:45:59.349Z,1027.07
2023-02-28T04:46:59.313Z,1027.10
2023-02-28T04:47:59.269Z,1027.08
2023-02-28T04:48:59.239Z,1027.13
2023-02-28T04:49:59.275Z,1027.11
2023-02-28T04:50:59.217Z,1027.13
2023-02-28T04:51:59.236Z,1027.16
2023-02-28T04:52:59.231Z,1027.17
2023-02-28T04:53:59.224Z,1027.15
2023-02-28T04:54:59.154Z,1027.17
2023-02-28T04:55:59.181Z,1027.14
2023-02-28T04:56:59.156Z,1027.17
2023-02-28T04:57:59.212Z,1027.22
2023-02-28T04:58:59.130Z,1027.15
2023-02-28T04:59:59.103Z,1027.19
2023-02-28T05:00:59.078Z,1027.16
2023-02-28T05:01:59.151Z,1027.12
2023-02-28T05:02:59.042Z,1027.15
2023-02-28T05:03:59.119Z,1027.16
2023-02-28T05:04:59.172Z,1027.16
2023-02-28T05:05:59.057Z,1027.12
2023-02-28T05:06:59.047Z,1027.21
2023-02-28T05:07:59.028Z,1027.24
2023-02-28T05:08:59.024Z,1027.22
2023-02-28T05:09:59.006Z,1027.22
2023-02-28T05:10:58.981Z,1027.20
2023-02-28T05:11:58.985Z,1027.24
2023-02-28T05:12:58.992Z,1027.20
2023-02-28T05:13:58.929Z,1027.25
2023-02-28T05:14:58.915Z,1027.25
2023-02-28T05:15:58.977Z,1027.21
2023-02-28T05:16:58.896Z,1027.18
2023-02-28T05:17:58.880Z,1027.28
2023-02-28T05:18:58.972Z,1027.23
2023-02-28T05:20:09.813Z,1027.28
2023-02-28T05:20:59.879Z,1027.28
2023-02-28T05:21:58.843Z,1027.31
2023-02-28T05:22:58.803Z,1027.30
2023-02-28T05:23:58.841Z,1027.27
2023-02-28T05:24:58.771Z,1027.29
2023-02-28T05:25:58.840Z,1027.26
2023-02-28T05:26:58.780Z,1027.23
2023-02-28T05:27:58.768Z,1027.30
2023-02-28T05:28:58.781Z,1027.25
2023-02-28T05:29:58.736Z,1027.27
2023-02-28T05:30:58.723Z,1027.25
2023-02-28T05:31:58.790Z,1027.25
2023-02-28T05:32:58.696Z,1027.31
2023-02-28T05:33:58.736Z,1027.26
2023-02-28T05:34:58.672Z,1027.22
2023-02-28T05:35:58.744Z,1027.26
2023-02-28T05:36:58.640Z,1027.21
2023-02-28T05:37:58.630Z,1027.21
2023-02-28T05:38:58.657Z,1027.24
2023-02-28T05:39:58.609Z,1027.21
2023-02-28T05:40:58.568Z,1027.27
2023-02-28T05:41:58.639Z,1027.25
2023-02-28T05:42:58.589Z,1027.24
2023-02-28T05:43:58.580Z,1027.24
2023-02-28T05:44:58.593Z,1027.23
2023-02-28T05:45:58.579Z,1027.23
2023-02-28T05:46:58.512Z,1027.25
2023-02-28T05:47:58.492Z,1027.29
2023-02-28T05:48:58.570Z,1027.30
2023-02-28T05:49:58.452Z,1027.27
2023-02-28T05:50:58.450Z,1027.33
2023-02-28T05:51:58.473Z,1027.27
2023-02-28T05:52:58.467Z,1027.32
2023-02-28T05:53:58.420Z,1027.27
2023-02-28T05:54:58.434Z,1027.24
2023-02-28T05:55:58.396Z,1027.32
2023-02-28T05:56:58.423Z,1027.28
2023-02-28T05:57:58.378Z,1027.35
2023-02-28T05:58:58.393Z,1027.32
2023-02-28T05:59:58.354Z,1027.31
2023-02-28T06:00:58.360Z,1027.25
2023-02-28T06:01:58.358Z,1027.26
2023-02-28T06:02:58.556Z,1027.23
2023-02-28T06:08:37.841Z,1027.27
2023-02-28T06:09:37.841Z,1027.25
2023-02-28T06:10:37.810Z,1027.22
2023-02-28T06:11:40.782Z,1027.24
2023-02-28T06:12:37.795Z,1027.30
2023-02-28T06:13:37.748Z,1027.22
2023-02-28T06:14:37.780Z,1027.35
2023-02-28T06:15:37.729Z,1027.29
2023-02-28T06:16:37.763Z,1027.26
2023-02-28T06:17:37.682Z,1027.37
2023-02-28T06:18:37.708Z,1027.27
2023-02-28T06:19:37.741Z,1027.33
2023-02-28T06:20:37.693Z,1027.33
2023-02-28T06:21:37.670Z,1027.38
2023-02-28T06:22:37.632Z,1027.41
2023-02-28T06:23:37.645Z,1027.38
2023-02-28T06:24:37.649Z,1027.34
2023-02-28T06:25:37.612Z,1027.36
2023-02-28T06:26:37.627Z,1027.40
2023-02-28T06:27:37.588Z,1027.36
2023-02-28T06:28:37.586Z,1027.36
2023-02-28T06:30:47.014Z,1027.43
2023-02-28T06:31:47.109Z,1027.44
2023-02-28T06:32:49.794Z,1027.45
2023-02-28T06:33:46.937Z,1027.49
2023-02-28T06:34:46.966Z,1027.46
2023-02-28T06:35:47.026Z,1027.49
2023-02-28T06:36:46.965Z,1027.50
2023-02-28T06:37:46.891Z,1027.53
2023-02-28T06:38:46.925Z,1027.57
2023-02-28T06:39:46.859Z,1027.62
2023-02-28T06:40:46.867Z,1027.65
2023-02-28T06:41:54.786Z,1027.59
2023-02-28T06:42:47.837Z,1027.63
2023-02-28T06:43:46.833Z,1027.62
2023-02-28T06:44:46.893Z,1027.63
2023-02-28T06:45:46.823Z,1027.68
2023-02-28T06:46:46.812Z,1027.65
2023-02-28T06:47:46.775Z,1027.66
2023-02-28T06:48:46.773Z,1027.71
2023-02-28T06:49:46.779Z,1027.79
2023-02-28T06:50:46.766Z,1027.70
2023-02-28T06:51:46.751Z,1027.80
2023-02-28T06:52:46.715Z,1027.77
2023-02-28T06:53:46.722Z,1027.74
2023-02-28T06:54:46.783Z,1027.82
2023-02-28T06:55:46.675Z,1027.80
2023-02-28T06:56:46.699Z,1027.87
2023-02-28T06:57:46.688Z,1027.81
2023-02-28T06:58:46.659Z,1027.85
2023-02-28T06:59:46.648Z,1027.74
2023-02-28T07:00:46.666Z,1027.85
2023-02-28T07:01:46.719Z,1027.86
2023-02-28T07:02:46.646Z,1027.91
2023-02-28T07:03:46.561Z,1027.86
2023-02-28T07:04:46.639Z,1027.82
2023-02-28T07:05:46.606Z,1027.82
2023-02-28T07:06:46.543Z,1027.86
2023-02-28T07:07:46.550Z,1027.88
2023-02-28T07:08:46.550Z,1027.90
2023-02-28T07:09:46.536Z,1027.85
2023-02-28T07:10:46.502Z,1027.87
2023-02-28T07:11:46.456Z,1027.87
2023-02-28T07:12:46.465Z,1027.92
2023-02-28T07:13:46.463Z,1027.94
2023-02-28T07:14:46.456Z,1027.87
2023-02-28T07:15:46.478Z,1027.97
2023-02-28T07:16:46.472Z,1027.93
2023-02-28T07:17:46.408Z,1027.92
2023-02-28T07:18:46.428Z,1027.95
2023-02-28T07:19:46.406Z,1027.90
2023-02-28T07:20:46.390Z,1027.91
2023-02-28T07:21:46.367Z,1027.96
2023-02-28T07:22:46.366Z,1027.87
2023-02-28T07:23:46.341Z,1027.96
2023-02-28T07:24:46.344Z,1027.97
2023-02-28T07:25:46.342Z,1027.97
2023-02-28T07:26:46.288Z,1028.01
2023-02-28T07:27:46.294Z,1027.97
2023-02-28T07:28:46.286Z,1027.93
2023-02-28T07:29:46.247Z,1027.86
2023-02-28T07:30:46.294Z,1028.01
2023-02-28T07:31:46.235Z,1027.96
2023-02-28T07:32:46.217Z,1027.97
2023-02-28T07:33:46.210Z,1028.03
2023-02-28T07:34:46.199Z,1027.92
2023-02-28T07:35:46.260Z,1027.97
2023-02-28T07:36:46.158Z,1027.94
2023-02-28T07:37:46.177Z,1027.95
2023-02-28T07:38:48.377Z,1027.92
2023-02-28T07:39:46.128Z,1027.96
2023-02-28T07:40:46.141Z,1027.95
2023-02-28T07:41:46.127Z,1027.94
2023-02-28T07:42:46.139Z,1027.93
2023-02-28T07:43:46.119Z,1028.01
2023-02-28T07:44:46.071Z,1028.04
2023-02-28T07:45:46.096Z,1027.99
2023-02-28T07:46:46.091Z,1028.02
2023-02-28T07:47:46.059Z,1028.01
2023-02-28T07:48:46.048Z,1027.92
2023-02-28T07:49:46.028Z,1027.98
2023-02-28T07:50:46.006Z,1027.99
2023-02-28T07:51:46.027Z,1028.00
2023-02-28T07:52:45.986Z,1027.99
2023-02-28T07:53:45.987Z,1027.95
2023-02-28T07:54:45.976Z,1028.05
2023-02-28T07:55:45.995Z,1028.03
2023-02-28T07:56:45.909Z,1028.06
2023-02-28T07:57:45.920Z,1028.02
2023-02-28T07:58:45.878Z,1027.98
2023-02-28T07:59:46.268Z,1028.03
2023-02-28T08:00:45.954Z,1027.98
2023-02-28T08:01:45.947Z,1027.97
2023-02-28T08:02:45.877Z,1028.04
2023-02-28T08:03:45.840Z,1027.99
2023-02-28T08:04:45.860Z,1028.03
2023-02-28T08:05:45.844Z,1028.03
2023-02-28T08:06:45.803Z,1028.04
2023-02-28T08:07:45.788Z,1028.07
2023-02-28T08:08:45.868Z,1028.06
2023-02-28T08:09:45.810Z,1028.03
2023-02-28T08:10:45.771Z,1028.04
2023-02-28T08:11:45.754Z,1028.08
2023-02-28T08:12:45.774Z,1028.09
2023-02-28T08:13:45.775Z,1028.10
2023-02-28T08:14:45.711Z,1028.07
2023-02-28T08:15:45.713Z,1028.06
2023-02-28T08:16:45.673Z,1028.04
2023-02-28T08:17:45.693Z,1028.02
2023-02-28T08:18:45.676Z,1028.11
2023-02-28T08:19:45.672Z,1028.11
2023-02-28T08:20:45.604Z,1028.17
2023-02-28T08:21:45.661Z,1028.10
2023-02-28T08:22:46.104Z,1028.10
2023-02-28T08:23:45.602Z,1028.10
2023-02-28T08:24:45.566Z,1028.09
2023-02-28T08:25:45.606Z,1028.11
2023-02-28T08:26:45.591Z,1028.12
2023-02-28T08:27:45.530Z,1028.11
2023-02-28T08:28:45.548Z,1028.16
2023-02-28T08:29:45.534Z,1028.13
2023-02-28T08:30:45.488Z,1028.10
2023-02-28T08:31:45.608Z,1028.14
2023-02-28T08:32:45.508Z,1028.06
2023-02-28T08:33:45.510Z,1028.06
2023-02-28T08:34:47.882Z,1028.13
2023-02-28T08:35:45.515Z,1028.14
2023-02-28T08:36:45.546Z,1028.10
2023-02-28T08:37:45.436Z,1028.12
2023-02-28T08:38:45.378Z,1028.14
2023-02-28T08:39:45.387Z,1028.14
2023-02-28T08:40:45.444Z,1028.12
2023-02-28T08:41:46.842Z,1028.13
2023-02-28T08:42:45.374Z,1028.16
2023-02-28T08:43:45.407Z,1028.11
2023-02-28T08:44:45.336Z,1028.10
2023-02-28T08:45:45.423Z,1028.12
2023-02-28T08:46:45.313Z,1028.09
2023-02-28T08:47:45.309Z,1028.17
2023-02-28T08:48:45.283Z,1028.18
2023-02-28T08:49:45.352Z,1028.18
2023-02-28T08:50:50.419Z,1028.17
2023-02-28T08:51:46.264Z,1028.20
2023-02-28T08:52:45.208Z,1028.12
2023-02-28T08:53:45.243Z,1028.13
2023-02-28T08:54:45.204Z,1028.19
2023-02-28T08:55:45.178Z,1028.20
2023-02-28T08:56:45.156Z,1028.15
2023-02-28T08:57:45.148Z,1028.18
2023-02-28T08:58:45.155Z,1028.19
2023-02-28T08:59:45.154Z,1028.14
2023-02-28T09:00:45.120Z,1028.21
2023-02-28T09:01:45.104Z,1028.18
2023-02-28T09:02:45.105Z,1028.12
2023-02-28T09:03:45.148Z,1028.13
2023-02-28T09:04:45.110Z,1028.07
2023-02-28T09:05:45.088Z,1028.13
2023-02-28T09:06:45.062Z,1028.07
2023-02-28T09:07:45.015Z,1028.12
2023-02-28T09:08:45.034Z,1028.11
2023-02-28T09:09:44.998Z,1028.07
2023-02-28T09:10:44.988Z,1028.04
2023-02-28T09:11:45.007Z,1028.12
2023-02-28T09:12:44.985Z,1028.09
2023-02-28T09:13:44.978Z,1028.09
2023-02-28T09:14:44.957Z,1028.12
2023-02-28T09:15:44.952Z,1028.08
2023-02-28T09:16:44.972Z,1028.05
2023-02-28T09:17:47.026Z,1028.08
2023-02-28T09:18:44.938Z,1028.05
2023-02-28T09:19:44.912Z,1028.07
2023-02-28T09:20:44.849Z,1028.02
2023-02-28T09:21:44.880Z,1028.02
2023-02-28T09:22:44.865Z,1027.96
2023-02-28T09:23:44.856Z,1027.88
2023-02-28T09:24:44.849Z,1027.93
2023-02-28T09:25:44.799Z,1027.91
2023-02-28T09:26:56.423Z,1027.92
2023-02-28T09:27:45.806Z,1027.94
2023-02-28T09:28:44.787Z,1027.88
2023-02-28T09:29:44.758Z,1027.96
2023-02-28T09:30:44.814Z,1027.95
2023-02-28T09:31:44.754Z,1027.94
2023-02-28T09:32:44.747Z,1027.93
2023-02-28T09:33:44.736Z,1027.89
2023-02-28T09:34:44.714Z,1027.90
2023-02-28T09:35:44.681Z,1027.90
2023-02-28T09:36:46.745Z,1027.85
2023-02-28T09:37:44.702Z,1027.88
2023-02-28T09:38:44.628Z,1027.85
2023-02-28T09:39:44.678Z,1027.90
2023-02-28T09:40:44.603Z,1027.90
2023-02-28T09:41:44.609Z,1027.83
2023-02-28T09:42:44.608Z,1027.81
2023-02-28T09:43:44.576Z,1027.92
2023-02-28T09:44:45.220Z,1027.85
2023-02-28T09:45:44.603Z,1027.88
2023-02-28T09:46:44.526Z,1027.88
2023-02-28T09:47:44.562Z,1027.90
2023-02-28T09:48:44.533Z,1027.92
2023-02-28T09:49:44.506Z,1027.94
2023-02-28T09:50:44.506Z,1027.92
2023-02-28T09:51:44.561Z,1027.90
2023-02-28T09:52:44.688Z,1027.89
2023-02-28T09:53:47.926Z,1027.90
2023-02-28T09:54:45.450Z,1027.86
2023-02-28T09:55:47.150Z,1027.88
2023-02-28T09:56:44.476Z,1027.88
2023-02-28T09:57:44.756Z,1027.90
2023-02-28T09:58:44.437Z,1027.85
2023-02-28T09:59:44.618Z,1027.80
2023-02-28T10:00:44.377Z,1027.83
2023-02-28T10:01:44.450Z,1027.81
2023-02-28T10:02:44.380Z,1027.80
2023-02-28T10:03:44.483Z,1027.76
2023-02-28T10:04:44.401Z,1027.76
2023-02-28T10:05:44.637Z,1027.81
2023-02-28T10:06:44.281Z,1027.86
2023-02-28T10:07:44.294Z,1027.84
2023-02-28T10:08:44.292Z,1027.87
2023-02-28T10:09:44.281Z,1027.86
2023-02-28T10:10:44.239Z,1027.83
2023-02-28T10:11:44.242Z,1027.83
2023-02-28T10:12:44.202Z,1027.80
2023-02-28T10:13:44.234Z,1027.77
2023-02-28T10:14:44.181Z,1027.80
2023-02-28T10:15:44.214Z,1027.71
2023-02-28T10:16:44.185Z,1027.83
2023-02-28T10:17:55.076Z,1027.77
2023-02-28T10:18:45.182Z,1027.85
2023-02-28T10:19:44.157Z,1027.74
2023-02-28T10:20:44.125Z,1027.77
2023-02-28T10:21:44.112Z,1027.69
2023-02-28T10:22:44.114Z,1027.70
2023-02-28T10:23:44.090Z,1027.68
2023-02-28T10:24:44.055Z,1027.74
2023-02-28T10:25:44.149Z,1027.75
2023-02-28T10:26:44.034Z,1027.67
2023-02-28T10:27:44.023Z,1027.70
2023-02-28T10:28:44.015Z,1027.68
2023-02-28T10:29:44.032Z,1027.67
2023-02-28T10:30:44.049Z,1027.66
2023-02-28T10:31:43.984Z,1027.71
2023-02-28T10:32:43.935Z,1027.68
2023-02-28T10:33:43.979Z,1027.71
2023-02-28T10:34:43.912Z,1027.71
2023-02-28T10:35:43.940Z,1027.72
2023-02-28T10:36:43.939Z,1027.68
2023-02-28T10:37:43.925Z,1027.69
2023-02-28T10:38:43.913Z,1027.62
2023-02-28T10:39:43.875Z,1027.63
2023-02-28T10:40:43.886Z,1027.64
2023-02-28T10:41:43.857Z,1027.65
2023-02-28T10:42:43.843Z,1027.72
2023-02-28T10:43:43.833Z,1027.65
2023-02-28T10:44:43.829Z,1027.61
2023-02-28T10:45:43.787Z,1027.65
2023-02-28T10:46:43.840Z,1027.62
2023-02-28T10:47:43.764Z,1027.59
2023-02-28T10:48:43.762Z,1027.61
2023-02-28T10:49:43.732Z,1027.69
2023-02-28T10:50:43.787Z,1027.68
2023-02-28T10:51:43.739Z,1027.67
2023-02-28T10:52:43.741Z,1027.64
2023-02-28T10:53:59.675Z,1027.62
2023-02-28T10:54:44.684Z,1027.55
2023-02-28T10:55:43.695Z,1027.56
2023-02-28T10:56:43.670Z,1027.53
2023-02-28T10:57:43.639Z,1027.56
2023-02-28T10:58:43.682Z,1027.64
2023-02-28T10:59:43.632Z,1027.62
2023-02-28T11:00:43.610Z,1027.60
2023-02-28T11:01:43.680Z,1027.49
2023-02-28T11:02:43.588Z,1027.54
2023-02-28T11:03:43.561Z,1027.56
2023-02-28T11:04:43.666Z,1027.49
2023-02-28T11:05:43.548Z,1027.42
2023-02-28T11:06:43.535Z,1027.43
2023-02-28T11:07:52.970Z,1027.42
2023-02-28T11:08:44.532Z,1027.50
2023-02-28T11:09:43.623Z,1027.47
2023-02-28T11:10:43.453Z,1027.42
2023-02-28T11:11:43.482Z,1027.47
2023-02-28T11:12:51.976Z,1027.42
2023-02-28T11:13:44.461Z,1027.41
2023-02-28T11:14:43.686Z,1027.43
2023-02-28T11:15:43.505Z,1027.39
2023-02-28T11:16:43.369Z,1027.39
2023-02-28T11:17:43.422Z,1027.37
2023-02-28T11:18:43.367Z,1027.31
2023-02-28T11:19:43.358Z,1027.36
2023-02-28T11:20:43.340Z,1027.32
2023-02-28T11:21:43.333Z,1027.33
2023-02-28T11:22:43.318Z,1027.40
2023-02-28T11:23:43.296Z,1027.31
2023-02-28T11:24:43.299Z,1027.33
2023-02-28T11:25:43.269Z,1027.41
2023-02-28T11:26:43.284Z,1027.32
2023-02-28T11:27:43.301Z,1027.24
2023-02-28T11:28:43.254Z,1027.20
2023-02-28T11:29:43.282Z,1027.21
2023-02-28T11:30:45.553Z,1027.20
2023-02-28T11:31:43.216Z,1027.32
2023-02-28T11:32:43.252Z,1027.30
2023-02-28T11:33:43.214Z,1027.30
2023-02-28T11:34:43.151Z,1027.27
2023-02-28T11:35:44.061Z,1027.34
2023-02-28T11:36:44.135Z,1027.33
2023-02-28T11:37:43.143Z,1027.37
2023-02-28T11:38:43.112Z,1027.37
2023-02-28T11:39:43.128Z,1027.37
2023-02-28T11:40:43.116Z,1027.33
2023-02-28T11:41:43.087Z,1027.28
2023-02-28T11:42:43.031Z,1027.35
2023-02-28T11:43:43.041Z,1027.32
2023-02-28T11:44:43.033Z,1027.35
2023-02-28T11:45:43.046Z,1027.38
2023-02-28T11:46:43.109Z,1027.40
2023-02-28T11:47:43.000Z,1027.37
2023-02-28T11:48:43.061Z,1027.37
2023-02-28T11:49:43.002Z,1027.40
2023-02-28T11:50:42.967Z,1027.37
2023-02-28T11:51:42.951Z,1027.34
2023-02-28T11:52:42.940Z,1027.34
2023-02-28T11:53:42.957Z,1027.21
2023-02-28T11:54:42.924Z,1027.29
2023-02-28T11:55:43.003Z,1027.30
2023-02-28T11:56:43.680Z,1027.36
2023-02-28T11:57:42.904Z,1027.29
2023-02-28T11:58:42.867Z,1027.37
2023-02-28T11:59:42.833Z,1027.39
2023-02-28T12:00:42.855Z,1027.37
2023-02-28T12:01:42.973Z,1027.37
2023-02-28T12:02:42.936Z,1027.31
2023-02-28T12:03:42.783Z,1027.28
2023-02-28T12:04:42.788Z,1027.40
2023-02-28T12:05:42.786Z,1027.33
2023-02-28T12:06:42.753Z,1027.21
2023-02-28T12:07:42.734Z,1027.18
2023-02-28T12:08:42.737Z,1027.27
2023-02-28T12:09:42.744Z,1027.29
2023-02-28T12:10:42.725Z,1027.26